sensor_id;sensor_type;location;lat;lon;timestamp;P1;durP1;ratioP1;P2;durP2;ratioP2
23768;SDS011;12064;50.890;5.424;2024-02-21T00:07:30;3.05;;;2.28;;
23768;SDS011;12064;50.890;5.424;2024-02-21T00:16:21;3.87;;;2.20;;
23768;SDS011;12064;50.890;5.424;2024-02-21T00:25:12;3.43;;;2.10;;
23768;SDS011;12064;50.890;5.424;2024-02-21T00:34:02;3.55;;;2.08;;
23768;SDS011;12064;50.890;5.424;2024-02-21T00:42:53;5.00;;;1.93;;
23768;SDS011;12064;50.890;5.424;2024-02-21T00:51:43;3.35;;;1.90;;
23768;SDS011;12064;50.890;5.424;2024-02-21T01:00:34;3.23;;;2.10;;
23768;SDS011;12064;50.890;5.424;2024-02-21T01:09:25;2.45;;;1.75;;
23768;SDS011;12064;50.890;5.424;2024-02-21T01:18:15;4.22;;;2.10;;
23768;SDS011;12064;50.890;5.424;2024-02-21T01:27:06;4.85;;;2.10;;
23768;SDS011;12064;50.890;5.424;2024-02-21T01:35:57;3.00;;;1.60;;
23768;SDS011;12064;50.890;5.424;2024-02-21T01:44:47;3.75;;;1.90;;
23768;SDS011;12064;50.890;5.424;2024-02-21T01:53:40;3.83;;;2.10;;
23768;SDS011;12064;50.890;5.424;2024-02-21T02:02:33;2.95;;;2.00;;
23768;SDS011;12064;50.890;5.424;2024-02-21T02:11:24;3.97;;;2.00;;
23768;SDS011;12064;50.890;5.424;2024-02-21T02:20:14;5.03;;;1.90;;
23768;SDS011;12064;50.890;5.424;2024-02-21T02:29:06;2.92;;;1.90;;
23768;SDS011;12064;50.890;5.424;2024-02-21T02:37:57;4.30;;;1.98;;
23768;SDS011;12064;50.890;5.424;2024-02-21T02:46:48;2.90;;;1.90;;
23768;SDS011;12064;50.890;5.424;2024-02-21T02:55:39;3.30;;;1.90;;
23768;SDS011;12064;50.890;5.424;2024-02-21T03:04:29;2.40;;;1.65;;
23768;SDS011;12064;50.890;5.424;2024-02-21T03:13:20;3.67;;;2.00;;
23768;SDS011;12064;50.890;5.424;2024-02-21T03:22:11;3.03;;;1.80;;
23768;SDS011;12064;50.890;5.424;2024-02-21T03:31:01;3.07;;;1.90;;
23768;SDS011;12064;50.890;5.424;2024-02-21T03:39:52;4.10;;;1.75;;
23768;SDS011;12064;50.890;5.424;2024-02-21T03:48:42;4.50;;;1.73;;
23768;SDS011;12064;50.890;5.424;2024-02-21T03:57:33;4.03;;;1.60;;
23768;SDS011;12064;50.890;5.424;2024-02-21T04:06:24;3.28;;;1.70;;
23768;SDS011;12064;50.890;5.424;2024-02-21T04:15:15;3.67;;;2.00;;
23768;SDS011;12064;50.890;5.424;2024-02-21T04:24:06;3.42;;;1.80;;
23768;SDS011;12064;50.890;5.424;2024-02-21T04:32:56;3.35;;;2.00;;
23768;SDS011;12064;50.890;5.424;2024-02-21T04:41:47;2.40;;;1.60;;
23768;SDS011;12064;50.890;5.424;2024-02-21T04:50:38;2.25;;;1.63;;
23768;SDS011;12064;50.890;5.424;2024-02-21T04:59:28;2.37;;;1.53;;
23768;SDS011;12064;50.890;5.424;2024-02-21T05:08:19;3.28;;;1.73;;
23768;SDS011;12064;50.890;5.424;2024-02-21T05:17:10;3.13;;;1.77;;
23768;SDS011;12064;50.890;5.424;2024-02-21T05:26:01;4.17;;;1.50;;
23768;SDS011;12064;50.890;5.424;2024-02-21T05:34:51;2.07;;;1.50;;
23768;SDS011;12064;50.890;5.424;2024-02-21T05:43:42;3.10;;;1.60;;
23768;SDS011;12064;50.890;5.424;2024-02-21T05:52:33;2.83;;;1.67;;
23768;SDS011;12064;50.890;5.424;2024-02-21T06:01:23;4.93;;;1.70;;
23768;SDS011;12064;50.890;5.424;2024-02-21T06:10:14;2.42;;;1.55;;
23768;SDS011;12064;50.890;5.424;2024-02-21T06:19:05;2.58;;;1.50;;
23768;SDS011;12064;50.890;5.424;2024-02-21T06:27:56;2.30;;;1.50;;
23768;SDS011;12064;50.890;5.424;2024-02-21T06:36:46;2.73;;;1.50;;
23768;SDS011;12064;50.890;5.424;2024-02-21T06:45:37;3.10;;;1.57;;
23768;SDS011;12064;50.890;5.424;2024-02-21T06:54:29;2.83;;;1.30;;
23768;SDS011;12064;50.890;5.424;2024-02-21T07:03:19;3.20;;;1.50;;
23768;SDS011;12064;50.890;5.424;2024-02-21T07:12:10;1.88;;;1.33;;
23768;SDS011;12064;50.890;5.424;2024-02-21T07:21:01;3.30;;;1.63;;
23768;SDS011;12064;50.890;5.424;2024-02-21T07:29:51;1.70;;;1.40;;
23768;SDS011;12064;50.890;5.424;2024-02-21T07:38:42;3.20;;;1.60;;
23768;SDS011;12064;50.890;5.424;2024-02-21T07:47:33;2.37;;;1.50;;
23768;SDS011;12064;50.890;5.424;2024-02-21T07:56:23;3.97;;;1.45;;
23768;SDS011;12064;50.890;5.424;2024-02-21T08:05:17;2.58;;;1.58;;
23768;SDS011;12064;50.890;5.424;2024-02-21T08:14:09;2.83;;;1.55;;
23768;SDS011;12064;50.890;5.424;2024-02-21T08:23:00;3.42;;;1.40;;
23768;SDS011;12064;50.890;5.424;2024-02-21T08:31:52;3.35;;;1.83;;
23768;SDS011;12064;50.890;5.424;2024-02-21T08:40:43;8.48;;;3.80;;
23768;SDS011;12064;50.890;5.424;2024-02-21T08:49:34;6.90;;;2.47;;
23768;SDS011;12064;50.890;5.424;2024-02-21T08:58:25;4.75;;;2.15;;
23768;SDS011;12064;50.890;5.424;2024-02-21T09:07:16;11.35;;;3.00;;
23768;SDS011;12064;50.890;5.424;2024-02-21T09:16:07;8.13;;;2.70;;
23768;SDS011;12064;50.890;5.424;2024-02-21T09:24:59;7.38;;;2.63;;
23768;SDS011;12064;50.890;5.424;2024-02-21T09:33:49;6.22;;;2.20;;
23768;SDS011;12064;50.890;5.424;2024-02-21T09:42:40;7.30;;;2.00;;
23768;SDS011;12064;50.890;5.424;2024-02-21T09:51:32;3.80;;;2.03;;
23768;SDS011;12064;50.890;5.424;2024-02-21T10:00:26;4.13;;;1.83;;
23768;SDS011;12064;50.890;5.424;2024-02-21T10:09:21;5.43;;;1.90;;
23768;SDS011;12064;50.890;5.424;2024-02-21T10:18:19;5.70;;;2.03;;
23768;SDS011;12064;50.890;5.424;2024-02-21T10:27:09;3.70;;;1.70;;
23768;SDS011;12064;50.890;5.424;2024-02-21T10:36:06;4.03;;;1.60;;
23768;SDS011;12064;50.890;5.424;2024-02-21T10:45:01;3.93;;;1.80;;
23768;SDS011;12064;50.890;5.424;2024-02-21T11:02:49;3.30;;;1.70;;
23768;SDS011;12064;50.890;5.424;2024-02-21T11:11:41;3.53;;;1.55;;
23768;SDS011;12064;50.890;5.424;2024-02-21T11:20:33;3.35;;;1.75;;
23768;SDS011;12064;50.890;5.424;2024-02-21T11:29:24;2.47;;;1.45;;
23768;SDS011;12064;50.890;5.424;2024-02-21T11:38:15;3.75;;;1.70;;
23768;SDS011;12064;50.890;5.424;2024-02-21T11:47:07;3.53;;;1.50;;
23768;SDS011;12064;50.890;5.424;2024-02-21T11:56:01;3.42;;;1.60;;
23768;SDS011;12064;50.890;5.424;2024-02-21T12:04:52;2.80;;;1.35;;
23768;SDS011;12064;50.890;5.424;2024-02-21T12:13:44;2.80;;;1.60;;
23768;SDS011;12064;50.890;5.424;2024-02-21T12:22:35;3.42;;;1.52;;
23768;SDS011;12064;50.890;5.424;2024-02-21T12:31:26;3.13;;;1.50;;
23768;SDS011;12064;50.890;5.424;2024-02-21T12:40:17;3.10;;;1.45;;
23768;SDS011;12064;50.890;5.424;2024-02-21T12:49:08;2.20;;;1.30;;
23768;SDS011;12064;50.890;5.424;2024-02-21T12:58:03;3.22;;;1.50;;
23768;SDS011;12064;50.890;5.424;2024-02-21T13:06:55;2.05;;;1.40;;
23768;SDS011;12064;50.890;5.424;2024-02-21T13:15:49;4.47;;;1.63;;
23768;SDS011;12064;50.890;5.424;2024-02-21T13:24:39;3.42;;;1.42;;
23768;SDS011;12064;50.890;5.424;2024-02-21T13:33:30;3.40;;;1.33;;
23768;SDS011;12064;50.890;5.424;2024-02-21T13:42:21;3.40;;;1.53;;
23768;SDS011;12064;50.890;5.424;2024-02-21T13:51:11;2.97;;;1.38;;
23768;SDS011;12064;50.890;5.424;2024-02-21T14:00:05;2.43;;;1.53;;
23768;SDS011;12064;50.890;5.424;2024-02-21T14:17:51;2.67;;;1.63;;
23768;SDS011;12064;50.890;5.424;2024-02-21T14:26:41;1.73;;;1.20;;
23768;SDS011;12064;50.890;5.424;2024-02-21T14:35:32;3.43;;;1.30;;
23768;SDS011;12064;50.890;5.424;2024-02-21T14:44:24;3.03;;;1.48;;
23768;SDS011;12064;50.890;5.424;2024-02-21T14:53:17;2.17;;;1.38;;
23768;SDS011;12064;50.890;5.424;2024-02-21T15:02:08;1.95;;;1.23;;
23768;SDS011;12064;50.890;5.424;2024-02-21T15:11:00;1.35;;;1.00;;
23768;SDS011;12064;50.890;5.424;2024-02-21T15:19:50;2.40;;;1.30;;
23768;SDS011;12064;50.890;5.424;2024-02-21T15:28:44;2.20;;;1.20;;
23768;SDS011;12064;50.890;5.424;2024-02-21T15:37:35;2.20;;;1.30;;
23768;SDS011;12064;50.890;5.424;2024-02-21T15:46:26;2.28;;;1.27;;
23768;SDS011;12064;50.890;5.424;2024-02-21T15:55:17;2.22;;;1.30;;
23768;SDS011;12064;50.890;5.424;2024-02-21T16:04:09;1.93;;;1.00;;
23768;SDS011;12064;50.890;5.424;2024-02-21T16:12:59;4.55;;;1.02;;
23768;SDS011;12064;50.890;5.424;2024-02-21T16:21:50;1.30;;;1.20;;
23768;SDS011;12064;50.890;5.424;2024-02-21T16:30:40;2.60;;;1.40;;
23768;SDS011;12064;50.890;5.424;2024-02-21T16:39:32;2.58;;;1.40;;
23768;SDS011;12064;50.890;5.424;2024-02-21T16:48:23;3.03;;;1.30;;
23768;SDS011;12064;50.890;5.424;2024-02-21T16:57:13;1.58;;;1.05;;
23768;SDS011;12064;50.890;5.424;2024-02-21T17:06:05;2.30;;;1.00;;
23768;SDS011;12064;50.890;5.424;2024-02-21T17:14:56;2.13;;;1.20;;
23768;SDS011;12064;50.890;5.424;2024-02-21T17:23:47;2.50;;;1.25;;
23768;SDS011;12064;50.890;5.424;2024-02-21T17:32:38;2.35;;;1.25;;
23768;SDS011;12064;50.890;5.424;2024-02-21T17:41:29;3.22;;;1.40;;
23768;SDS011;12064;50.890;5.424;2024-02-21T17:50:20;4.97;;;1.60;;
23768;SDS011;12064;50.890;5.424;2024-02-21T17:59:11;2.65;;;1.20;;
23768;SDS011;12064;50.890;5.424;2024-02-21T18:08:02;2.85;;;1.27;;
23768;SDS011;12064;50.890;5.424;2024-02-21T18:16:53;2.70;;;1.60;;
23768;SDS011;12064;50.890;5.424;2024-02-21T18:25:45;2.17;;;1.30;;
23768;SDS011;12064;50.890;5.424;2024-02-21T18:34:38;2.67;;;1.30;;
23768;SDS011;12064;50.890;5.424;2024-02-21T18:43:29;6.78;;;2.20;;
23768;SDS011;12064;50.890;5.424;2024-02-21T18:52:20;3.25;;;1.50;;
23768;SDS011;12064;50.890;5.424;2024-02-21T19:01:10;3.33;;;1.50;;
23768;SDS011;12064;50.890;5.424;2024-02-21T19:10:01;3.35;;;1.30;;
23768;SDS011;12064;50.890;5.424;2024-02-21T19:18:53;1.80;;;1.10;;
23768;SDS011;12064;50.890;5.424;2024-02-21T19:27:48;2.63;;;1.20;;
23768;SDS011;12064;50.890;5.424;2024-02-21T19:36:39;2.35;;;1.20;;
23768;SDS011;12064;50.890;5.424;2024-02-21T19:45:30;2.35;;;1.33;;
23768;SDS011;12064;50.890;5.424;2024-02-21T19:54:24;2.20;;;1.10;;
23768;SDS011;12064;50.890;5.424;2024-02-21T20:03:15;2.83;;;1.13;;
23768;SDS011;12064;50.890;5.424;2024-02-21T20:12:06;2.88;;;1.00;;
23768;SDS011;12064;50.890;5.424;2024-02-21T20:20:57;2.08;;;1.08;;
23768;SDS011;12064;50.890;5.424;2024-02-21T20:29:47;1.27;;;1.10;;
23768;SDS011;12064;50.890;5.424;2024-02-21T20:38:38;1.90;;;0.90;;
23768;SDS011;12064;50.890;5.424;2024-02-21T20:47:29;1.43;;;0.97;;
23768;SDS011;12064;50.890;5.424;2024-02-21T20:56:19;1.77;;;1.02;;
23768;SDS011;12064;50.890;5.424;2024-02-21T21:05:11;1.15;;;0.90;;
23768;SDS011;12064;50.890;5.424;2024-02-21T21:14:01;1.98;;;0.95;;
23768;SDS011;12064;50.890;5.424;2024-02-21T21:22:53;2.10;;;1.20;;
23768;SDS011;12064;50.890;5.424;2024-02-21T21:31:44;1.23;;;1.00;;
23768;SDS011;12064;50.890;5.424;2024-02-21T21:40:34;1.13;;;0.97;;
23768;SDS011;12064;50.890;5.424;2024-02-21T21:49:25;2.30;;;1.00;;
23768;SDS011;12064;50.890;5.424;2024-02-21T21:58:17;3.20;;;1.02;;
23768;SDS011;12064;50.890;5.424;2024-02-21T22:07:08;2.97;;;1.10;;
23768;SDS011;12064;50.890;5.424;2024-02-21T22:15:58;2.30;;;0.90;;
23768;SDS011;12064;50.890;5.424;2024-02-21T22:24:49;1.47;;;0.93;;
23768;SDS011;12064;50.890;5.424;2024-02-21T22:33:40;1.70;;;0.90;;
23768;SDS011;12064;50.890;5.424;2024-02-21T22:42:31;4.13;;;0.90;;
23768;SDS011;12064;50.890;5.424;2024-02-21T22:51:21;1.47;;;0.77;;
23768;SDS011;12064;50.890;5.424;2024-02-21T23:00:12;1.33;;;0.70;;
23768;SDS011;12064;50.890;5.424;2024-02-21T23:09:05;1.92;;;0.82;;
23768;SDS011;12064;50.890;5.424;2024-02-21T23:17:58;2.17;;;1.10;;
23768;SDS011;12064;50.890;5.424;2024-02-21T23:26:49;1.77;;;0.70;;
23768;SDS011;12064;50.890;5.424;2024-02-21T23:35:39;1.50;;;0.80;;
23768;SDS011;12064;50.890;5.424;2024-02-21T23:44:30;2.00;;;0.70;;
23768;SDS011;12064;50.890;5.424;2024-02-21T23:53:21;1.05;;;0.80;;
